Bigneck, Illinois
Current Conditions -  °F | °C
As of 5:54 AM on Saturday 25 Oct 2014 (Local Time) from KUIN Reporting Station
Moderate Fog Moderate Fog  
Wind Chill: 56°   Ceiling: 900
Heat Index: 56°   Visibility: 0.25mi
Dew Point: 56°   Wind: 5mph
Humidity: 100%   Direction: 280°W
Pressure: 30"   Gusts: NA
Location:  40.1526°N, 91.2028°W
Report Text: KUIN 251054Z AUTO 28004KT 1/4SM FG VV009 13/13 A3000 RMK AO2 SLP156 T01330133
Loading
Personal Weather Stations






























Interactive Weather Map
Tropical Storm Tracking
New forecast layout! Learn more

10-Day Weather Forecast

Advertisements
Track Severe Weather on mobile